createdAt,value
2018-05-17T00:00:08.970Z,946.31
2018-05-17T00:01:08.965Z,946.34
2018-05-17T00:02:08.954Z,946.35
2018-05-17T00:03:08.955Z,946.32
2018-05-17T00:04:08.953Z,946.35
2018-05-17T00:05:08.941Z,946.35
2018-05-17T00:06:08.933Z,946.37
2018-05-17T00:07:08.923Z,946.38
2018-05-17T00:08:08.929Z,946.38
2018-05-17T00:09:08.923Z,946.36
2018-05-17T00:10:08.913Z,946.42
2018-05-17T00:11:08.905Z,946.38
2018-05-17T00:12:08.901Z,946.35
2018-05-17T00:13:08.895Z,946.33
2018-05-17T00:14:08.895Z,946.34
2018-05-17T00:15:08.887Z,946.33
2018-05-17T00:16:08.878Z,946.27
2018-05-17T00:17:08.873Z,946.28
2018-05-17T00:18:08.856Z,946.29
2018-05-17T00:19:08.864Z,946.27
2018-05-17T00:20:08.855Z,946.26
2018-05-17T00:21:08.848Z,946.28
2018-05-17T00:22:08.844Z,946.29
2018-05-17T00:23:08.865Z,946.29
2018-05-17T00:24:08.833Z,946.31
2018-05-17T00:25:08.830Z,946.32
2018-05-17T00:26:08.819Z,946.32
2018-05-17T00:27:08.815Z,946.31
2018-05-17T00:28:08.811Z,946.27
2018-05-17T00:29:08.814Z,946.24
2018-05-17T00:30:08.800Z,946.24
2018-05-17T00:31:08.793Z,946.25
2018-05-17T00:32:08.787Z,946.21
2018-05-17T00:33:08.791Z,946.17
2018-05-17T00:34:08.780Z,946.16
2018-05-17T00:35:08.769Z,946.11
2018-05-17T00:36:08.769Z,946.07
2018-05-17T00:37:08.809Z,946.09
2018-05-17T00:38:08.762Z,946.05
2018-05-17T00:39:08.752Z,946.05
2018-05-17T00:40:08.744Z,946.04
2018-05-17T00:41:08.755Z,946.02
2018-05-17T00:42:08.726Z,946.04
2018-05-17T00:43:08.716Z,946.00
2018-05-17T00:44:08.721Z,946.02
2018-05-17T00:45:08.711Z,946.03
2018-05-17T00:46:08.715Z,946.04
2018-05-17T00:47:08.699Z,946.01
2018-05-17T00:48:08.698Z,946.04
2018-05-17T00:49:08.688Z,945.95
2018-05-17T00:50:08.682Z,945.93
2018-05-17T00:51:08.676Z,945.94
2018-05-17T00:52:08.675Z,945.93
2018-05-17T00:53:08.666Z,945.94
2018-05-17T00:54:08.659Z,945.95
2018-05-17T00:55:08.657Z,945.94
2018-05-17T00:56:08.651Z,945.93
2018-05-17T00:57:08.647Z,945.95
2018-05-17T00:58:08.636Z,945.90
2018-05-17T00:59:08.635Z,945.94
2018-05-17T01:00:08.627Z,945.90
2018-05-17T01:01:08.612Z,945.95
2018-05-17T01:02:08.617Z,945.95
2018-05-17T01:03:08.606Z,945.99
2018-05-17T01:04:08.602Z,945.99
2018-05-17T01:05:08.586Z,946.02
2018-05-17T01:06:08.591Z,946.01
2018-05-17T01:07:08.582Z,946.04
2018-05-17T01:08:08.579Z,946.04
2018-05-17T01:09:08.570Z,946.00
2018-05-17T01:10:08.566Z,946.00
2018-05-17T01:11:08.562Z,945.98
2018-05-17T01:12:08.551Z,945.95
2018-05-17T01:13:08.588Z,946.00
2018-05-17T01:14:08.546Z,945.98
2018-05-17T01:15:08.537Z,945.99
2018-05-17T01:16:08.526Z,945.95
2018-05-17T01:17:08.543Z,945.99
2018-05-17T01:18:08.515Z,945.98
2018-05-17T01:19:08.505Z,945.97
2018-05-17T01:20:08.505Z,946.03
2018-05-17T01:21:08.497Z,945.99
2018-05-17T01:22:08.494Z,946.04
2018-05-17T01:23:08.490Z,946.02
2018-05-17T01:24:08.484Z,946.02
2018-05-17T01:25:08.471Z,946.02
2018-05-17T01:26:08.483Z,946.06
2018-05-17T01:27:08.464Z,946.05
2018-05-17T01:28:08.444Z,946.05
2018-05-17T01:29:08.450Z,946.04
2018-05-17T01:30:08.445Z,946.04
2018-05-17T02:03:16.099Z,945.99
2018-05-17T02:04:16.071Z,946.00
2018-05-17T02:06:08.973Z,945.99
2018-05-17T02:07:08.957Z,946.01
2018-05-17T02:09:01.880Z,946.05
2018-05-17T02:10:01.848Z,946.02
2018-05-17T02:11:54.756Z,946.04
2018-05-17T02:12:54.731Z,946.01
2018-05-17T02:14:47.717Z,946.01
2018-05-17T02:15:47.685Z,946.00
2018-05-17T02:17:40.700Z,945.99
2018-05-17T02:18:40.675Z,945.95
2018-05-17T02:20:33.612Z,945.96
2018-05-17T02:21:33.585Z,945.92
2018-05-17T02:23:26.547Z,945.93
2018-05-17T02:24:26.525Z,945.93
2018-05-17T02:26:19.444Z,945.86
2018-05-17T02:27:19.433Z,945.90
2018-05-17T02:29:12.400Z,945.89
2018-05-17T02:30:12.367Z,945.90
2018-05-17T02:32:05.295Z,945.88
2018-05-17T02:33:05.285Z,945.89
2018-05-17T02:34:58.298Z,945.90
2018-05-17T02:35:58.270Z,945.87
2018-05-17T02:37:51.251Z,945.84
2018-05-17T02:38:51.216Z,945.86
2018-05-17T02:40:44.194Z,945.85
2018-05-17T02:41:44.179Z,945.86
2018-05-17T02:43:38.108Z,945.87
2018-05-17T02:44:38.079Z,945.87
2018-05-17T02:46:31.060Z,945.87
2018-05-17T02:47:31.033Z,945.93
2018-05-17T02:49:23.996Z,945.95
2018-05-17T02:50:23.966Z,945.91
2018-05-17T02:52:16.901Z,945.90
2018-05-17T02:53:16.882Z,945.89
2018-05-17T02:55:09.819Z,945.86
2018-05-17T02:56:09.801Z,945.92
2018-05-17T02:58:02.750Z,945.93
2018-05-17T02:59:02.730Z,945.87
2018-05-17T03:00:55.669Z,945.86
2018-05-17T03:01:55.659Z,945.87
2018-05-17T03:03:48.670Z,945.85
2018-05-17T03:04:48.625Z,945.86
2018-05-17T03:06:41.636Z,945.81
2018-05-17T03:07:41.611Z,945.80
2018-05-17T03:09:34.577Z,945.84
2018-05-17T03:10:34.546Z,945.78
2018-05-17T03:12:27.539Z,945.80
2018-05-17T03:13:27.516Z,945.81
2018-05-17T03:15:20.488Z,945.81
2018-05-17T03:16:20.446Z,945.78
2018-05-17T03:18:13.446Z,945.81
2018-05-17T03:19:13.420Z,945.81
2018-05-17T03:21:06.394Z,945.87
2018-05-17T03:22:06.356Z,945.89
2018-05-17T03:23:59.334Z,945.86
2018-05-17T03:24:59.282Z,945.87
2018-05-17T03:26:52.178Z,945.89
2018-05-17T03:27:52.168Z,945.89
2018-05-17T03:28:52.161Z,945.90
2018-05-17T03:29:52.163Z,945.92
2018-05-17T03:30:52.145Z,945.94
2018-05-17T03:31:52.147Z,945.90
2018-05-17T03:32:52.134Z,945.89
2018-05-17T03:33:52.132Z,945.86
2018-05-17T03:34:52.125Z,945.85
2018-05-17T03:35:52.140Z,945.86
2018-05-17T03:36:52.109Z,945.86
2018-05-17T03:37:52.111Z,945.81
2018-05-17T03:38:52.143Z,945.85
2018-05-17T03:39:52.100Z,945.84
2018-05-17T03:40:52.091Z,945.85
2018-05-17T03:41:52.089Z,945.86
2018-05-17T03:42:52.089Z,945.84
2018-05-17T03:43:52.068Z,945.81
2018-05-17T03:44:52.158Z,945.83
2018-05-17T03:45:52.065Z,945.85
2018-05-17T03:46:52.082Z,945.82
2018-05-17T03:47:52.057Z,945.80
2018-05-17T03:48:52.047Z,945.80
2018-05-17T03:49:52.040Z,945.81
2018-05-17T03:50:52.036Z,945.86
2018-05-17T03:51:52.027Z,945.83
2018-05-17T03:52:52.019Z,945.80
2018-05-17T03:53:52.023Z,945.78
2018-05-17T03:54:52.058Z,945.78
2018-05-17T03:55:52.003Z,945.78
2018-05-17T03:56:52.002Z,945.74
2018-05-17T03:57:51.997Z,945.74
2018-05-17T03:58:51.989Z,945.72
2018-05-17T03:59:51.981Z,945.72
2018-05-17T04:00:52.028Z,945.73
2018-05-17T04:01:51.970Z,945.77
2018-05-17T04:02:51.967Z,945.74
2018-05-17T04:03:52.046Z,945.73
2018-05-17T04:04:51.958Z,945.75
2018-05-17T04:05:51.982Z,945.76
2018-05-17T04:06:51.940Z,945.76
2018-05-17T04:07:51.942Z,945.76
2018-05-17T04:08:51.928Z,945.69
2018-05-17T04:09:51.925Z,945.72
2018-05-17T04:10:51.920Z,945.77
2018-05-17T04:11:51.910Z,945.79
2018-05-17T04:12:51.905Z,945.80
2018-05-17T04:13:51.920Z,945.87
2018-05-17T04:14:51.988Z,945.87
2018-05-17T04:15:51.927Z,945.85
2018-05-17T04:16:51.926Z,945.89
2018-05-17T04:17:51.891Z,945.86
2018-05-17T04:18:51.940Z,945.88
2018-05-17T04:19:51.954Z,945.90
2018-05-17T04:20:51.994Z,945.96
2018-05-17T04:21:51.888Z,945.94
2018-05-17T04:22:51.865Z,945.96
2018-05-17T04:23:51.880Z,945.98
2018-05-17T04:24:51.880Z,946.01
2018-05-17T04:25:51.851Z,946.03
2018-05-17T04:26:51.933Z,946.09
2018-05-17T04:27:51.856Z,946.14
2018-05-17T04:28:51.898Z,946.13
2018-05-17T04:29:51.826Z,946.14
2018-05-17T04:30:51.832Z,946.16
2018-05-17T04:31:51.832Z,946.20
2018-05-17T04:32:51.830Z,946.23
2018-05-17T04:33:51.842Z,946.26
2018-05-17T04:34:51.842Z,946.27
2018-05-17T04:35:51.828Z,946.28
2018-05-17T04:36:51.831Z,946.24
2018-05-17T04:37:51.779Z,946.25
2018-05-17T04:38:51.794Z,946.28
2018-05-17T04:39:51.801Z,946.31
2018-05-17T04:40:51.780Z,946.30
2018-05-17T04:41:51.787Z,946.30
2018-05-17T04:42:51.755Z,946.37
2018-05-17T04:43:51.765Z,946.31
2018-05-17T04:44:51.772Z,946.33
2018-05-17T04:45:51.729Z,946.32
2018-05-17T04:46:51.735Z,946.34
2018-05-17T04:47:51.732Z,946.33
2018-05-17T04:48:51.735Z,946.34
2018-05-17T04:49:51.742Z,946.30
2018-05-17T04:50:51.689Z,946.31
2018-05-17T04:51:51.676Z,946.36
2018-05-17T04:52:51.676Z,946.31
2018-05-17T04:53:51.668Z,946.31
2018-05-17T04:54:51.817Z,946.36
2018-05-17T04:55:51.677Z,946.35
2018-05-17T04:56:51.650Z,946.30
2018-05-17T04:57:51.643Z,946.35
2018-05-17T04:58:51.643Z,946.36
2018-05-17T04:59:51.637Z,946.36
2018-05-17T05:00:51.630Z,946.35
2018-05-17T05:01:51.621Z,946.33
2018-05-17T05:02:51.685Z,946.35
2018-05-17T05:03:51.623Z,946.34
2018-05-17T05:04:51.613Z,946.37
2018-05-17T05:05:51.619Z,946.40
2018-05-17T05:06:51.592Z,946.38
2018-05-17T05:07:51.590Z,946.38
2018-05-17T05:08:51.583Z,946.38
2018-05-17T05:09:51.582Z,946.37
2018-05-17T05:10:51.573Z,946.40
2018-05-17T05:11:51.559Z,946.36
2018-05-17T05:12:51.556Z,946.39
2018-05-17T05:13:51.575Z,946.33
2018-05-17T05:14:51.550Z,946.34
2018-05-17T05:15:51.545Z,946.33
2018-05-17T05:16:51.536Z,946.33
2018-05-17T05:17:51.535Z,946.32
2018-05-17T05:18:51.525Z,946.32
2018-05-17T05:19:51.514Z,946.31
2018-05-17T05:20:51.518Z,946.30
2018-05-17T05:21:51.505Z,946.30
2018-05-17T05:22:51.504Z,946.29
2018-05-17T05:23:51.499Z,946.30
2018-05-17T05:24:51.496Z,946.24
2018-05-17T05:25:51.494Z,946.26
2018-05-17T05:26:51.514Z,946.27
2018-05-17T05:27:51.509Z,946.24
2018-05-17T05:28:51.481Z,946.26
2018-05-17T05:29:51.464Z,946.23
2018-05-17T05:30:51.461Z,946.23
2018-05-17T05:31:51.453Z,946.20
2018-05-17T05:32:51.501Z,946.22
2018-05-17T05:33:51.446Z,946.21
2018-05-17T05:34:51.443Z,946.18
2018-05-17T05:35:51.428Z,946.19
2018-05-17T05:36:51.426Z,946.18
2018-05-17T05:37:51.433Z,946.15
2018-05-17T05:38:51.416Z,946.16
2018-05-17T05:39:51.407Z,946.10
2018-05-17T05:40:51.404Z,946.11
2018-05-17T05:41:51.456Z,946.09
2018-05-17T05:42:51.483Z,946.12
2018-05-17T05:43:51.387Z,946.09
2018-05-17T05:44:51.381Z,946.10
2018-05-17T05:45:51.381Z,946.05
2018-05-17T05:46:51.368Z,946.08
2018-05-17T05:47:51.361Z,946.05
2018-05-17T05:48:51.357Z,946.03
2018-05-17T05:49:51.357Z,946.01
2018-05-17T05:50:51.384Z,945.98
2018-05-17T05:51:51.345Z,946.01
2018-05-17T05:52:51.382Z,945.99
2018-05-17T05:53:51.330Z,945.98
2018-05-17T05:54:51.323Z,946.01
2018-05-17T05:55:51.358Z,946.05
2018-05-17T05:56:51.317Z,946.08
2018-05-17T05:57:51.312Z,946.09
2018-05-17T05:58:51.310Z,946.09
2018-05-17T05:59:51.299Z,946.08
2018-05-17T06:00:51.291Z,946.12
2018-05-17T06:01:51.288Z,946.12
2018-05-17T06:02:51.286Z,946.14
2018-05-17T06:03:51.285Z,946.19
2018-05-17T06:04:51.273Z,946.16
2018-05-17T06:05:51.270Z,946.20
2018-05-17T06:06:51.257Z,946.21
2018-05-17T06:07:51.259Z,946.17
2018-05-17T06:08:51.253Z,946.18
2018-05-17T06:09:51.242Z,946.26
2018-05-17T06:10:51.240Z,946.24
2018-05-17T06:11:51.231Z,946.30
2018-05-17T06:12:51.229Z,946.28
2018-05-17T06:13:51.224Z,946.31
2018-05-17T06:14:51.218Z,946.36
2018-05-17T06:15:51.213Z,946.36
2018-05-17T06:16:51.250Z,946.34
2018-05-17T06:17:51.296Z,946.36
2018-05-17T06:18:51.195Z,946.40
2018-05-17T06:19:51.188Z,946.39
2018-05-17T06:20:51.186Z,946.40
2018-05-17T06:21:51.177Z,946.38
2018-05-17T06:22:51.177Z,946.39
2018-05-17T06:23:51.259Z,946.42
2018-05-17T06:24:51.166Z,946.45
2018-05-17T06:25:51.160Z,946.42
2018-05-17T06:26:51.153Z,946.44
2018-05-17T06:27:51.152Z,946.46
2018-05-17T06:28:51.142Z,946.44
2018-05-17T06:29:51.623Z,946.47
2018-05-17T06:30:51.134Z,946.50
2018-05-17T06:31:51.130Z,946.47
2018-05-17T06:32:51.131Z,946.48
2018-05-17T06:33:51.118Z,946.51
2018-05-17T06:34:51.114Z,946.52
2018-05-17T06:35:51.106Z,946.52
2018-05-17T06:36:51.105Z,946.53
2018-05-17T06:37:51.099Z,946.54
2018-05-17T06:38:51.090Z,946.54
2018-05-17T06:39:51.086Z,946.57
2018-05-17T06:40:51.083Z,946.57
2018-05-17T06:41:51.072Z,946.55
2018-05-17T06:42:51.075Z,946.56
2018-05-17T06:43:51.108Z,946.57
2018-05-17T06:44:51.063Z,946.56
2018-05-17T06:45:51.057Z,946.58
2018-05-17T06:46:51.052Z,946.59
2018-05-17T06:47:51.047Z,946.62
2018-05-17T06:48:51.039Z,946.59
2018-05-17T06:49:51.095Z,946.63
2018-05-17T06:50:51.074Z,946.58
2018-05-17T06:51:51.204Z,946.59
2018-05-17T06:52:51.114Z,946.60
2018-05-17T06:53:51.025Z,946.59
2018-05-17T06:54:51.012Z,946.63
2018-05-17T06:55:51.004Z,946.61
2018-05-17T06:56:51.004Z,946.60
2018-05-17T06:57:50.999Z,946.60
2018-05-17T06:58:50.993Z,946.58
2018-05-17T06:59:50.986Z,946.63
2018-05-17T07:00:51.054Z,946.61
2018-05-17T07:01:50.981Z,946.62
2018-05-17T07:02:50.972Z,946.63
2018-05-17T07:03:50.966Z,946.60
2018-05-17T07:04:51.015Z,946.65
2018-05-17T07:05:50.961Z,946.64
2018-05-17T07:06:50.953Z,946.69
2018-05-17T07:07:50.949Z,946.69
2018-05-17T07:08:50.942Z,946.71
2018-05-17T07:09:50.946Z,946.72
2018-05-17T07:10:50.961Z,946.71
2018-05-17T07:11:50.933Z,946.71
2018-05-17T07:12:50.928Z,946.77
2018-05-17T07:13:50.927Z,946.75
2018-05-17T07:14:50.924Z,946.74
2018-05-17T07:15:50.924Z,946.76
2018-05-17T07:16:50.931Z,946.77
2018-05-17T07:17:50.998Z,946.78
2018-05-17T07:18:50.906Z,946.80
2018-05-17T07:19:50.901Z,946.83
2018-05-17T07:20:50.899Z,946.81
2018-05-17T07:21:50.901Z,946.79
2018-05-17T07:22:50.890Z,946.82
2018-05-17T07:23:50.890Z,946.84
2018-05-17T07:24:50.878Z,946.84
2018-05-17T07:25:50.881Z,946.86
2018-05-17T07:26:50.877Z,946.86
2018-05-17T07:27:50.876Z,946.88
2018-05-17T07:28:50.875Z,946.89
2018-05-17T07:29:50.877Z,946.87
2018-05-17T07:30:50.859Z,946.91
2018-05-17T07:31:50.859Z,946.87
2018-05-17T07:32:50.855Z,946.90
2018-05-17T07:33:50.852Z,946.94
2018-05-17T07:34:50.847Z,946.95
2018-05-17T07:35:50.836Z,946.91
2018-05-17T07:36:50.837Z,946.93
2018-05-17T07:37:50.842Z,946.96
2018-05-17T07:38:50.827Z,946.96
2018-05-17T07:39:50.827Z,946.96
2018-05-17T07:40:50.830Z,946.94
2018-05-17T07:41:50.812Z,946.94
2018-05-17T07:42:50.817Z,946.97
2018-05-17T07:43:50.812Z,946.97
2018-05-17T07:44:50.806Z,946.96
2018-05-17T07:45:50.804Z,946.96
2018-05-17T07:46:50.861Z,946.97
2018-05-17T07:47:50.794Z,946.95
2018-05-17T07:48:50.793Z,946.95
2018-05-17T07:49:50.786Z,946.98
2018-05-17T07:50:50.780Z,946.99
2018-05-17T07:51:50.776Z,946.98
2018-05-17T07:52:50.790Z,946.95
2018-05-17T07:53:50.767Z,947.00
2018-05-17T07:54:50.764Z,946.99
2018-05-17T07:55:50.762Z,946.98
2018-05-17T07:56:50.752Z,947.01
2018-05-17T07:57:50.749Z,946.99
2018-05-17T07:58:50.749Z,946.97
2018-05-17T07:59:50.760Z,946.98
2018-05-17T08:00:50.740Z,946.98
2018-05-17T08:01:50.764Z,947.00
2018-05-17T08:02:50.735Z,947.00
2018-05-17T08:03:50.728Z,947.00
2018-05-17T08:04:50.725Z,947.01
2018-05-17T08:05:50.745Z,947.07
2018-05-17T08:06:50.720Z,947.03
2018-05-17T08:07:50.718Z,947.07
2018-05-17T08:08:50.711Z,947.02
2018-05-17T08:09:50.705Z,947.06
2018-05-17T08:10:50.704Z,947.03
2018-05-17T08:11:50.697Z,947.01
2018-05-17T08:12:50.690Z,947.05
2018-05-17T08:13:50.689Z,947.05
2018-05-17T08:14:50.693Z,947.11
2018-05-17T08:15:50.687Z,947.12
2018-05-17T08:16:50.681Z,947.18
2018-05-17T08:17:50.679Z,947.16
2018-05-17T08:18:50.677Z,947.15
2018-05-17T08:19:50.675Z,947.11
2018-05-17T08:20:50.671Z,947.14
2018-05-17T08:21:50.667Z,947.16
2018-05-17T08:22:50.660Z,947.09
2018-05-17T08:23:50.659Z,947.12
2018-05-17T08:24:50.655Z,947.14
2018-05-17T08:25:50.653Z,947.10
2018-05-17T08:26:50.645Z,947.12
2018-05-17T08:27:50.641Z,947.11
2018-05-17T08:28:50.730Z,947.11
2018-05-17T08:29:50.663Z,947.11
2018-05-17T08:30:50.634Z,947.10
2018-05-17T08:31:50.650Z,947.15
2018-05-17T08:32:50.643Z,947.13
2018-05-17T08:33:50.621Z,947.12
2018-05-17T08:34:50.618Z,947.10
2018-05-17T08:35:50.612Z,947.12
2018-05-17T08:36:50.615Z,947.12
2018-05-17T08:37:50.607Z,947.13
2018-05-17T08:38:50.595Z,947.15
2018-05-17T08:39:50.600Z,947.12
2018-05-17T08:40:50.597Z,947.12
2018-05-17T08:41:50.598Z,947.12
2018-05-17T08:42:50.592Z,947.14
2018-05-17T08:43:50.585Z,947.15
2018-05-17T08:44:50.585Z,947.13
2018-05-17T08:45:50.584Z,947.12
2018-05-17T08:46:50.593Z,947.12
2018-05-17T08:47:50.577Z,947.16
2018-05-17T08:48:50.575Z,947.12
2018-05-17T08:49:50.572Z,947.18
2018-05-17T08:50:50.568Z,947.16
2018-05-17T08:51:50.563Z,947.18
2018-05-17T08:52:50.562Z,947.16
2018-05-17T08:53:50.561Z,947.19
2018-05-17T08:54:50.560Z,947.17
2018-05-17T08:55:50.553Z,947.16
2018-05-17T08:56:50.554Z,947.23
2018-05-17T08:57:50.606Z,947.21
2018-05-17T08:58:50.549Z,947.26
2018-05-17T08:59:50.543Z,947.30
2018-05-17T09:00:50.543Z,947.32
2018-05-17T09:01:50.540Z,947.30
2018-05-17T09:02:50.537Z,947.29
2018-05-17T09:03:50.535Z,947.31
2018-05-17T09:04:50.532Z,947.32
2018-05-17T09:05:50.541Z,947.37
2018-05-17T09:06:50.524Z,947.37
2018-05-17T09:07:50.523Z,947.42
2018-05-17T09:08:50.518Z,947.41
2018-05-17T09:09:50.516Z,947.40
2018-05-17T09:10:50.520Z,947.46
2018-05-17T09:11:50.506Z,947.44
2018-05-17T09:12:50.504Z,947.47
2018-05-17T09:13:50.585Z,947.41
2018-05-17T09:14:50.500Z,947.50
2018-05-17T09:15:50.494Z,947.41
2018-05-17T09:16:50.487Z,947.44
2018-05-17T09:17:50.487Z,947.45
2018-05-17T09:18:50.492Z,947.49
2018-05-17T09:19:50.488Z,947.47
2018-05-17T09:20:50.480Z,947.44
2018-05-17T09:21:50.503Z,947.47
2018-05-17T09:22:50.469Z,947.48
2018-05-17T09:23:50.499Z,947.49
2018-05-17T09:24:50.462Z,947.50
2018-05-17T09:25:50.455Z,947.48
2018-05-17T09:26:50.478Z,947.50
2018-05-17T09:27:50.448Z,947.50
2018-05-17T09:28:50.447Z,947.53
2018-05-17T09:29:50.444Z,947.56
2018-05-17T09:30:50.444Z,947.57
2018-05-17T09:31:50.440Z,947.57
2018-05-17T09:32:50.436Z,947.60
2018-05-17T09:33:50.437Z,947.60
2018-05-17T09:34:50.430Z,947.60
2018-05-17T09:35:50.476Z,947.58
2018-05-17T09:36:50.417Z,947.57
2018-05-17T09:37:50.412Z,947.62
2018-05-17T09:38:50.414Z,947.61
2018-05-17T09:39:50.414Z,947.53
2018-05-17T09:40:50.408Z,947.59
2018-05-17T09:41:50.405Z,947.59
2018-05-17T09:42:50.401Z,947.57
2018-05-17T09:43:50.397Z,947.61
2018-05-17T09:44:50.395Z,947.58
2018-05-17T09:45:50.389Z,947.58
2018-05-17T09:46:50.438Z,947.55
2018-05-17T09:47:50.378Z,947.58
2018-05-17T09:48:50.381Z,947.65
2018-05-17T09:49:50.373Z,947.64
2018-05-17T09:50:50.377Z,947.62
2018-05-17T09:51:50.368Z,947.64
2018-05-17T09:52:50.379Z,947.63
2018-05-17T09:53:50.367Z,947.68
2018-05-17T09:54:50.370Z,947.69
2018-05-17T09:55:50.361Z,947.67
2018-05-17T09:56:50.356Z,947.67
2018-05-17T09:57:50.356Z,947.67
2018-05-17T09:58:50.357Z,947.71
2018-05-17T09:59:50.350Z,947.70
2018-05-17T10:00:50.351Z,947.68
2018-05-17T10:01:50.352Z,947.71
2018-05-17T10:02:50.350Z,947.71
2018-05-17T10:03:50.342Z,947.70
2018-05-17T10:04:50.344Z,947.72
2018-05-17T10:05:50.336Z,947.73
2018-05-17T10:06:50.337Z,947.72
2018-05-17T10:07:50.338Z,947.71
2018-05-17T10:08:50.348Z,947.71
2018-05-17T10:09:50.325Z,947.72
2018-05-17T10:10:50.323Z,947.71
2018-05-17T10:11:50.328Z,947.71
2018-05-17T10:12:50.322Z,947.72
2018-05-17T10:13:50.321Z,947.70
2018-05-17T10:14:50.318Z,947.74
2018-05-17T10:15:50.312Z,947.77
2018-05-17T10:16:50.314Z,947.78
2018-05-17T10:17:50.310Z,947.79
2018-05-17T10:18:50.309Z,947.77
2018-05-17T10:19:50.306Z,947.77
2018-05-17T10:20:50.313Z,947.78
2018-05-17T10:21:50.315Z,947.77
2018-05-17T10:22:50.298Z,947.80
2018-05-17T10:23:50.306Z,947.77
2018-05-17T10:24:50.306Z,947.79
2018-05-17T10:25:50.308Z,947.81
2018-05-17T10:26:50.330Z,947.82
2018-05-17T10:27:50.334Z,947.80
2018-05-17T10:28:50.328Z,947.83
2018-05-17T10:29:50.336Z,947.84
2018-05-17T10:30:50.345Z,947.82
2018-05-17T10:31:50.339Z,947.84
2018-05-17T10:32:50.310Z,947.87
2018-05-17T10:33:50.340Z,947.88
2018-05-17T10:34:50.361Z,947.87
2018-05-17T10:35:50.272Z,947.87
2018-05-17T10:36:50.268Z,947.86
2018-05-17T10:37:50.268Z,947.87
2018-05-17T10:38:50.270Z,947.91
2018-05-17T10:39:50.277Z,947.89
2018-05-17T10:40:50.271Z,947.88
2018-05-17T10:41:50.265Z,947.85
2018-05-17T10:42:50.263Z,947.87
2018-05-17T10:43:50.257Z,947.84
2018-05-17T10:44:50.253Z,947.87
2018-05-17T10:45:50.261Z,947.87
2018-05-17T10:46:50.252Z,947.86
2018-05-17T10:47:50.247Z,947.85
2018-05-17T10:48:50.275Z,947.89
2018-05-17T10:49:50.243Z,947.90
2018-05-17T10:50:50.240Z,947.92
2018-05-17T10:51:50.241Z,947.92
2018-05-17T10:52:50.233Z,947.92
2018-05-17T10:53:50.232Z,947.91
2018-05-17T10:54:50.227Z,947.94
2018-05-17T10:55:50.223Z,947.95
2018-05-17T10:56:50.217Z,947.95
2018-05-17T10:57:50.215Z,947.90
2018-05-17T10:58:50.214Z,947.89
2018-05-17T10:59:50.218Z,947.89
2018-05-17T11:00:50.211Z,947.89
2018-05-17T11:01:50.213Z,947.92
2018-05-17T11:02:50.204Z,947.90
2018-05-17T11:03:50.204Z,947.89
2018-05-17T11:04:50.202Z,947.89
2018-05-17T11:05:50.201Z,947.93
2018-05-17T11:06:50.191Z,947.90
2018-05-17T11:07:50.191Z,947.88
2018-05-17T11:08:50.190Z,947.89
2018-05-17T11:09:50.182Z,947.90
2018-05-17T11:10:50.246Z,947.87
2018-05-17T11:11:50.177Z,947.88
2018-05-17T11:12:50.175Z,947.91
2018-05-17T11:13:50.178Z,947.84
2018-05-17T11:14:50.167Z,947.87
2018-05-17T11:15:50.172Z,947.84
2018-05-17T11:16:50.162Z,947.87
2018-05-17T11:17:50.164Z,947.86
2018-05-17T11:18:50.157Z,947.84
2018-05-17T11:19:50.168Z,947.82
2018-05-17T11:20:50.153Z,947.82
2018-05-17T11:21:50.149Z,947.80
2018-05-17T11:22:50.150Z,947.82
2018-05-17T11:23:50.147Z,947.75
2018-05-17T11:24:50.143Z,947.76
2018-05-17T11:25:50.222Z,947.74
2018-05-17T11:26:50.136Z,947.71
2018-05-17T11:27:50.136Z,947.79
2018-05-17T11:28:50.133Z,947.83
2018-05-17T11:29:50.136Z,947.80
2018-05-17T11:30:50.129Z,947.82
2018-05-17T11:31:50.132Z,947.83
2018-05-17T11:32:50.128Z,947.86
2018-05-17T11:33:50.126Z,947.87
2018-05-17T11:34:50.128Z,947.89
2018-05-17T11:35:50.121Z,947.87
2018-05-17T11:36:50.120Z,947.92
2018-05-17T11:37:50.118Z,947.92
2018-05-17T11:38:50.115Z,947.90
2018-05-17T11:39:50.118Z,947.89
2018-05-17T11:40:50.114Z,947.91
2018-05-17T11:41:50.118Z,947.95
2018-05-17T11:42:50.115Z,947.95
2018-05-17T11:43:50.106Z,947.92
2018-05-17T11:44:50.110Z,947.98
2018-05-17T11:45:50.111Z,947.93
2018-05-17T11:46:50.108Z,947.92
2018-05-17T11:47:50.109Z,947.95
2018-05-17T11:48:50.119Z,947.92
2018-05-17T11:49:50.118Z,947.91
2018-05-17T11:50:50.122Z,947.90
2018-05-17T11:51:50.125Z,947.88
2018-05-17T11:52:50.127Z,947.89
2018-05-17T11:53:50.133Z,947.89
2018-05-17T11:54:50.138Z,947.88
2018-05-17T11:55:50.142Z,947.91
2018-05-17T11:56:50.146Z,947.90
2018-05-17T11:57:50.154Z,947.89
2018-05-17T11:58:50.155Z,947.90
2018-05-17T11:59:50.159Z,947.92
2018-05-17T12:00:50.165Z,947.88
2018-05-17T12:01:50.170Z,947.89
2018-05-17T12:02:50.173Z,947.89
2018-05-17T12:03:50.181Z,947.92
2018-05-17T12:04:50.182Z,947.91
2018-05-17T12:05:50.187Z,947.91
2018-05-17T12:06:50.190Z,947.85
2018-05-17T12:07:50.199Z,947.89
2018-05-17T12:08:50.203Z,947.88
2018-05-17T12:09:50.212Z,947.89
2018-05-17T12:10:50.213Z,947.87
2018-05-17T12:11:50.253Z,947.90
2018-05-17T12:12:50.220Z,947.88
2018-05-17T12:13:50.229Z,947.88
2018-05-17T12:14:50.229Z,947.91
2018-05-17T12:15:50.233Z,947.88
2018-05-17T12:16:50.241Z,947.92
2018-05-17T12:17:50.236Z,947.86
2018-05-17T12:18:50.244Z,947.92
2018-05-17T12:19:50.257Z,947.87
2018-05-17T12:20:50.255Z,947.94
2018-05-17T12:21:50.258Z,947.90
2018-05-17T12:22:50.287Z,947.92
2018-05-17T12:23:50.257Z,947.92
2018-05-17T12:24:50.260Z,947.90
2018-05-17T12:25:50.263Z,947.94
2018-05-17T12:26:50.263Z,947.95
2018-05-17T12:27:50.260Z,947.90
2018-05-17T12:28:50.263Z,947.92
2018-05-17T12:29:50.267Z,947.95
2018-05-17T12:30:50.269Z,947.94
2018-05-17T12:31:50.284Z,947.91
2018-05-17T12:32:50.263Z,947.96
2018-05-17T12:33:50.270Z,947.92
2018-05-17T12:34:50.276Z,947.91
2018-05-17T12:35:50.270Z,947.90
2018-05-17T12:36:50.264Z,947.88
2018-05-17T12:37:50.265Z,947.91
2018-05-17T12:38:50.265Z,947.92
2018-05-17T12:39:50.265Z,947.88
2018-05-17T12:40:50.270Z,947.89
2018-05-17T12:41:50.336Z,947.88
2018-05-17T12:42:50.357Z,947.88
2018-05-17T12:43:50.274Z,947.84
2018-05-17T12:44:50.268Z,947.89
2018-05-17T12:45:50.282Z,947.87
2018-05-17T12:46:50.275Z,947.87
2018-05-17T12:47:50.271Z,947.86
2018-05-17T12:48:50.265Z,947.91
2018-05-17T12:49:50.267Z,947.88
2018-05-17T12:50:50.275Z,947.83
2018-05-17T12:51:50.273Z,947.84
2018-05-17T12:52:50.268Z,947.81
2018-05-17T12:53:50.265Z,947.79
2018-05-17T12:54:50.268Z,947.79
2018-05-17T12:55:50.267Z,947.78
2018-05-17T12:56:50.370Z,947.83
2018-05-17T12:57:50.269Z,947.74
2018-05-17T12:58:50.298Z,947.79
2018-05-17T12:59:50.279Z,947.83
2018-05-17T13:00:50.276Z,947.82
2018-05-17T13:01:50.270Z,947.83
2018-05-17T13:02:50.283Z,947.80
2018-05-17T13:03:50.289Z,947.76
2018-05-17T13:04:50.277Z,947.76
2018-05-17T13:05:50.287Z,947.71
2018-05-17T13:06:50.272Z,947.75
2018-05-17T13:07:50.286Z,947.71
2018-05-17T13:08:50.271Z,947.77
2018-05-17T13:09:50.273Z,947.83
2018-05-17T13:10:50.275Z,947.82
2018-05-17T13:11:50.296Z,947.89
2018-05-17T13:12:50.325Z,947.92
2018-05-17T13:13:50.330Z,947.93
2018-05-17T13:14:50.346Z,947.91
2018-05-17T13:15:50.289Z,947.86
2018-05-17T13:16:50.348Z,947.87
2018-05-17T13:17:50.350Z,947.93
2018-05-17T13:18:50.292Z,947.92
2018-05-17T13:19:50.290Z,947.93
2018-05-17T13:20:50.296Z,947.96
2018-05-17T13:21:50.297Z,947.94
2018-05-17T13:22:50.298Z,947.88
2018-05-17T13:23:50.304Z,947.90
2018-05-17T13:24:50.334Z,947.86
2018-05-17T13:25:50.308Z,947.87